aviador You're here:

SKSP Decoded Metar

SAN ANDRES ISLAND in COLOMBIA
Report Time2017-09-25 04:00:00
UTC Time2017-09-25 04:27:21
Flight Rules vfr VFR
WindVRB at 02 kt
Visibility9999 m
Phenomena:N/A
Clouds:Few 012 Hf
Scattered 200 Hf
Expected CloudBase > 800 ft AGL from Temp-Dew spread
CeilingNone
Temp27°C (ISA +12)
Dew Point25°C (89% RH)
Heat Index30.6°C
QNH1011 hPa
Density Alt1,857 ft
Elevation-7 ft
Report Wrong Elevation
Raw Report
METAR SKSP 250400Z VRB02KT 9999 FEW012 SCT200 27/25 A2986=

Extra information for SKSP:More info

Metar Taf Metar & Taf Last 4 Metars F.Rules Stats Wind Profile Meteogram Temp Stats Airport Information Weather charts Add Link Nearby VenuesMetar ALERT Operation Metar Decoded Social comments